Time;durP1;ratioP1;P1;durP2;ratioP2;P2;SDS_P1;SDS_P2;PMS_P1;PMS_P2;Temp;Humidity;BMP_temperature;BMP_pressure;BME280_temperature;BME280_humidity;BME280_pressure;Samples;Min_cycle;Max_cycle;Signal;HPM_P1;HPM_P2
2022/10/27 00:01:40;;;;;;;9.93;5.40;;;12.70;99.90;;;;;;6215797;23;20437;-84
2022/10/27 00:04:05;;;;;;;14.20;5.32;;;12.70;99.90;;;;;;6215731;23;20454;-84
2022/10/27 00:06:31;;;;;;;12.35;5.97;;;12.70;99.90;;;;;;6218298;23;20016;-83
2022/10/27 00:08:57;;;;;;;15.40;6.07;;;12.70;99.90;;;;;;6248750;23;20012;-84
2022/10/27 00:11:22;;;;;;;14.73;5.53;;;12.70;99.90;;;;;;6223276;23;20024;-84
2022/10/27 00:13:48;;;;;;;13.38;6.22;;;12.80;99.90;;;;;;6192810;23;20066;-83
2022/10/27 00:16:15;;;;;;;16.00;6.07;;;12.70;99.90;;;;;;6215402;23;20467;-84
2022/10/27 00:18:44;;;;;;;16.75;6.55;;;12.70;99.90;;;;;;6214711;23;20059;-84
2022/10/27 00:21:15;;;;;;;17.10;6.50;;;12.70;99.90;;;;;;6241673;23;20012;-84
2022/10/27 00:23:42;;;;;;;14.90;5.85;;;12.70;99.90;;;;;;6242006;23;20023;-84
2022/10/27 00:26:11;;;;;;;14.75;6.75;;;12.60;99.90;;;;;;6214736;23;20012;-84
2022/10/27 00:28:37;;;;;;;13.98;6.55;;;12.60;99.90;;;;;;6189724;23;20027;-83
2022/10/27 00:31:06;;;;;;;15.48;6.40;;;12.60;99.90;;;;;;6214563;23;20016;-84
2022/10/27 00:33:32;;;;;;;12.20;6.63;;;12.60;99.90;;;;;;6241533;23;20012;-84
2022/10/27 00:36:06;;;;;;;12.90;6.75;;;12.50;99.90;;;;;;6214521;23;20023;-84
2022/10/27 00:38:32;;;;;;;15.52;7.55;;;12.50;99.90;;;;;;6214060;23;20332;-84
2022/10/27 00:40:58;;;;;;;17.75;7.43;;;12.50;99.90;;;;;;6214323;23;20024;-84
2022/10/27 00:43:31;;;;;;;19.73;8.13;;;12.50;99.90;;;;;;6214880;23;20012;-84
2022/10/27 00:46:22;;;;;;;16.70;7.30;;;12.50;99.90;;;;;;6189141;23;20038;-83
2022/10/27 00:48:50;;;;;;;16.92;7.75;;;12.50;99.90;;;;;;6189385;23;20050;-84
2022/10/27 00:51:18;;;;;;;15.00;7.88;;;12.50;99.90;;;;;;6240935;23;20455;-84
2022/10/27 00:53:45;;;;;;;17.27;8.05;;;12.50;99.90;;;;;;6214294;23;20016;-84
2022/10/27 00:56:11;;;;;;;16.45;8.50;;;12.50;99.90;;;;;;6241874;23;20096;-84
2022/10/27 00:58:38;;;;;;;19.98;9.27;;;12.50;99.90;;;;;;6214354;23;20016;-83
2022/10/27 01:01:04;;;;;;;15.63;8.43;;;12.50;99.90;;;;;;6240889;23;20012;-84
2022/10/27 01:03:31;;;;;;;20.73;9.05;;;12.40;99.90;;;;;;6215148;23;20205;-84
2022/10/27 01:05:58;;;;;;;19.65;8.77;;;12.40;99.90;;;;;;6213767;23;20012;-83
2022/10/27 01:08:25;;;;;;;22.73;9.35;;;12.40;99.90;;;;;;6189619;23;20313;-83
2022/10/27 01:10:52;;;;;;;21.90;9.90;;;12.40;99.90;;;;;;6240847;23;20054;-84
2022/10/27 01:13:19;;;;;;;16.73;8.57;;;12.40;99.90;;;;;;6241643;23;20340;-84
2022/10/27 01:16:10;;;;;;;18.02;9.05;;;12.40;99.90;;;;;;6241444;23;20012;-84
2022/10/27 01:18:42;;;;;;;18.35;9.60;;;12.60;99.90;;;;;;6138803;23;20027;-84
2022/10/27 01:21:45;;;;;;;19.10;9.85;;;12.40;99.90;;;;;;6214141;23;20016;-84
2022/10/27 01:24:36;;;;;;;18.92;10.15;;;12.40;99.90;;;;;;6213923;23;20058;-84
2022/10/27 01:27:06;;;;;;;17.88;9.48;;;12.40;99.90;;;;;;6213942;23;20035;-84
2022/10/27 01:30:01;;;;;;;18.75;9.52;;;12.50;99.90;;;;;;6214370;23;20352;-84
2022/10/27 01:32:57;;;;;;;16.27;9.07;;;12.50;99.90;;;;;;6214290;23;20091;-84
2022/10/27 01:35:45;;;;;;;15.02;10.02;;;12.60;99.90;;;;;;6214177;23;20020;-84
2022/10/27 01:38:19;;;;;;;21.63;9.18;;;12.60;99.90;;;;;;6214009;23;20046;-84
2022/10/27 01:40:45;;;;;;;;;;;12.60;99.90;;;;;;6214769;23;20020;-84
2022/10/27 01:43:18;;;;;;;24.13;10.35;;;12.60;99.90;;;;;;6241638;23;19916;-84
2022/10/27 01:45:45;;;;;;;18.73;9.82;;;12.70;99.90;;;;;;6241083;23;20008;-84
2022/10/27 01:48:11;;;;;;;16.60;9.13;;;12.70;99.90;;;;;;6240503;23;20012;-84
2022/10/27 01:50:39;;;;;;;18.70;10.10;;;12.70;99.90;;;;;;6239997;23;20492;-84
2022/10/27 01:53:06;;;;;;;17.38;9.98;;;12.70;99.90;;;;;;6242447;23;20019;-84
2022/10/27 01:55:46;;;;;;;19.42;9.07;;;12.70;99.90;;;;;;6243041;23;20449;-84
2022/10/27 01:58:24;;;;;;;18.80;9.57;;;12.70;99.90;;;;;;6243259;23;20024;-84
2022/10/27 02:01:26;;;;;;;24.73;11.45;;;12.80;99.90;;;;;;6215339;23;20356;-84
2022/10/27 02:04:07;;;;;;;19.60;11.38;;;12.80;99.90;;;;;;6215348;23;20050;-84
2022/10/27 02:07:03;;;;;;;26.60;11.32;;;12.80;99.90;;;;;;6242354;23;20452;-84
2022/10/27 02:09:49;;;;;;;20.00;10.27;;;12.80;99.90;;;;;;6241400;23;20008;-84
2022/10/27 02:12:34;;;;;;;17.80;10.48;;;12.80;99.90;;;;;;6243515;23;20012;-85
2022/10/27 02:15:03;;;;;;;19.98;11.18;;;12.80;99.90;;;;;;6222633;23;20023;-84
2022/10/27 02:17:36;;;;;;;18.80;9.82;;;12.80;99.90;;;;;;6249449;23;20008;-84
2022/10/27 02:20:04;;;;;;;18.60;10.52;;;12.70;99.90;;;;;;6218205;23;20020;-84
2022/10/27 02:22:31;;;;;;;19.45;10.68;;;12.80;99.90;;;;;;6243741;23;20031;-84
2022/10/27 02:24:57;;;;;;;15.48;10.50;;;12.80;99.90;;;;;;6215770;23;20012;-84
2022/10/27 02:27:37;;;;;;;21.02;11.23;;;12.70;99.90;;;;;;6242086;23;20012;-84
2022/10/27 02:30:03;;;;;;;22.30;11.93;;;12.70;99.90;;;;;;6215214;23;20066;-84
2022/10/27 02:32:32;;;;;;;24.25;11.57;;;12.70;99.90;;;;;;6214996;23;20115;-84
2022/10/27 02:34:59;;;;;;;19.55;10.63;;;12.70;99.90;;;;;;6215676;23;20020;-84
2022/10/27 02:37:30;;;;;;;20.90;11.82;;;12.70;99.90;;;;;;6214611;23;20020;-84
2022/10/27 02:39:55;;;;;;;21.33;11.18;;;12.70;99.90;;;;;;6215973;23;20028;-84
2022/10/27 02:42:21;;;;;;;31.85;11.38;;;12.70;99.90;;;;;;6215985;23;20031;-84
2022/10/27 02:44:47;;;;;;;20.60;12.10;;;12.70;99.90;;;;;;6243097;23;20004;-84
2022/10/27 02:47:12;;;;;;;21.90;11.32;;;12.60;99.90;;;;;;6215073;23;20433;-84
2022/10/27 02:49:38;;;;;;;26.05;11.63;;;12.60;99.90;;;;;;6240451;23;20016;-84
2022/10/27 02:52:04;;;;;;;21.70;12.02;;;12.60;99.90;;;;;;6240878;23;20009;-84
2022/10/27 02:54:30;;;;;;;20.42;11.95;;;12.60;99.90;;;;;;6213747;23;20023;-84
2022/10/27 02:56:57;;;;;;;22.35;11.90;;;12.70;99.90;;;;;;6213220;23;20389;-84
2022/10/27 02:59:26;;;;;;;21.67;11.02;;;12.50;99.90;;;;;;6188498;23;20019;-84
2022/10/27 03:01:52;;;;;;;18.58;11.38;;;12.50;99.90;;;;;;6213089;23;20448;-84
2022/10/27 03:04:18;;;;;;;21.55;11.80;;;12.50;99.90;;;;;;6214986;23;20012;-84
2022/10/27 03:06:43;;;;;;;21.48;11.90;;;12.50;99.90;;;;;;6216042;23;20075;-84
2022/10/27 03:09:09;;;;;;;28.83;11.63;;;12.50;99.90;;;;;;6190388;23;20437;-84
2022/10/27 03:11:35;;;;;;;23.20;12.20;;;12.50;99.90;;;;;;6242564;23;20440;-84
2022/10/27 03:14:00;;;;;;;23.00;12.50;;;12.40;99.90;;;;;;6242818;23;20016;-84
2022/10/27 03:16:26;;;;;;;29.23;12.88;;;12.40;99.90;;;;;;6242121;23;20444;-84
2022/10/27 03:18:51;;;;;;;19.20;12.15;;;12.90;99.90;;;;;;6242943;23;20016;-84
2022/10/27 03:21:17;;;;;;;22.70;12.68;;;12.50;99.90;;;;;;6242627;23;20107;-84
2022/10/27 03:23:43;;;;;;;24.25;12.93;;;12.50;99.90;;;;;;6215285;23;20510;-84
2022/10/27 03:26:09;;;;;;;28.17;13.00;;;12.50;99.90;;;;;;6215564;23;20016;-84
2022/10/27 03:28:35;;;;;;;23.15;13.25;;;12.50;99.90;;;;;;6242584;23;20012;-84
2022/10/27 03:31:02;;;;;;;23.33;13.65;;;12.50;99.90;;;;;;6215373;23;20020;-84
2022/10/27 03:33:27;;;;;;;24.60;13.18;;;12.50;99.90;;;;;;6242317;23;20436;-84
2022/10/27 03:35:53;;;;;;;21.25;12.98;;;12.50;99.90;;;;;;6214983;23;20023;-84
2022/10/27 03:38:19;;;;;;;26.40;12.77;;;12.50;99.90;;;;;;6214942;23;20276;-84
2022/10/27 03:40:44;;;;;;;26.67;12.98;;;12.50;99.90;;;;;;6215549;23;20016;-84
2022/10/27 03:43:10;;;;;;;26.20;13.63;;;12.50;99.90;;;;;;6189511;23;20020;-84
2022/10/27 03:45:36;;;;;;;24.63;12.70;;;12.50;99.90;;;;;;6215584;23;20012;-84
2022/10/27 03:48:11;;;;;;;24.05;12.93;;;12.50;99.90;;;;;;6214901;23;20155;-84
2022/10/27 03:50:36;;;;;;;;;;;12.50;99.90;;;;;;6215879;23;20016;-84
2022/10/27 03:53:03;;;;;;;22.95;12.07;;;12.50;99.90;;;;;;6215227;23;19994;-84
2022/10/27 03:55:30;;;;;;;24.90;11.82;;;12.60;99.90;;;;;;6214871;23;20019;-84
2022/10/27 03:57:55;;;;;;;26.63;13.45;;;12.70;99.90;;;;;;6242011;23;20031;-84
2022/10/27 04:00:21;;;;;;;25.83;12.70;;;12.60;99.90;;;;;;6190480;23;20023;-84
2022/10/27 04:02:47;;;;;;;21.30;12.10;;;12.60;99.90;;;;;;6215051;23;20026;-84
2022/10/27 04:05:13;;;;;;;24.60;12.90;;;12.60;99.90;;;;;;6242794;23;20122;-84
2022/10/27 04:07:39;;;;;;;20.52;12.75;;;12.60;99.90;;;;;;6242246;23;20030;-84
2022/10/27 04:10:05;;;;;;;24.20;11.80;;;12.60;99.90;;;;;;6189575;23;20341;-84
2022/10/27 04:12:31;;;;;;;22.15;12.80;;;12.60;99.90;;;;;;6214229;23;20817;-83
2022/10/27 04:14:57;;;;;;;26.90;13.00;;;12.60;99.90;;;;;;6242525;23;20022;-84
2022/10/27 04:17:22;;;;;;;22.38;12.52;;;12.60;99.90;;;;;;6215175;23;20066;-84
2022/10/27 04:19:48;;;;;;;24.17;12.50;;;12.60;99.90;;;;;;6244074;23;20016;-84
2022/10/27 04:22:14;;;;;;;21.13;12.13;;;12.60;99.90;;;;;;6189584;23;20075;-83
2022/10/27 04:24:40;;;;;;;24.23;12.15;;;12.60;99.90;;;;;;6214240;23;20027;-84
2022/10/27 04:27:08;;;;;;;23.35;13.30;;;12.60;99.90;;;;;;6186021;23;20024;-83
2022/10/27 04:29:34;;;;;;;23.27;12.88;;;12.60;99.90;;;;;;6185964;23;20036;-83
2022/10/27 04:32:00;;;;;;;24.13;12.48;;;12.60;99.90;;;;;;6210586;23;20637;-84
2022/10/27 04:34:25;;;;;;;24.15;13.10;;;12.60;99.90;;;;;;6212075;23;20361;-84
2022/10/27 04:36:51;;;;;;;29.63;12.75;;;12.60;99.90;;;;;;6211595;23;20012;-84
2022/10/27 04:39:17;;;;;;;20.67;12.18;;;12.60;99.90;;;;;;6211682;23;20025;-84
2022/10/27 04:41:42;;;;;;;24.05;13.38;;;12.70;99.90;;;;;;6211344;23;20027;-84
2022/10/27 04:44:08;;;;;;;29.77;13.73;;;12.70;99.90;;;;;;6184873;23;20020;-84
2022/10/27 04:46:34;;;;;;;25.33;14.55;;;12.70;99.90;;;;;;6185092;23;20020;-84
2022/10/27 04:49:00;;;;;;;21.50;14.05;;;12.60;99.90;;;;;;6212199;23;20012;-83
2022/10/27 04:51:26;;;;;;;32.50;18.40;;;12.70;99.90;;;;;;6160612;23;20453;-84
2022/10/27 04:53:52;;;;;;;31.83;17.42;;;12.60;99.90;;;;;;6209487;23;20017;-84
2022/10/27 04:56:18;;;;;;;31.35;18.20;;;12.80;99.90;;;;;;6183488;23;20016;-84
2022/10/27 04:58:44;;;;;;;23.67;14.90;;;12.60;99.90;;;;;;6184814;23;20044;-83
2022/10/27 05:01:12;;;;;;;25.08;16.60;;;12.60;99.90;;;;;;6159940;23;20019;-83
2022/10/27 05:03:37;;;;;;;31.40;17.30;;;12.60;99.90;;;;;;6184800;23;20019;-84
2022/10/27 05:06:03;;;;;;;26.50;15.25;;;12.60;99.90;;;;;;6184335;23;20016;-83
2022/10/27 05:08:29;;;;;;;22.88;14.98;;;12.60;99.90;;;;;;6184583;23;20017;-84
2022/10/27 05:10:55;;;;;;;23.80;14.05;;;12.60;99.90;;;;;;6210739;23;20050;-84
2022/10/27 05:13:21;;;;;;;26.83;14.55;;;12.50;99.90;;;;;;6184382;23;20437;-84
2022/10/27 05:15:47;;;;;;;23.80;15.02;;;12.50;99.90;;;;;;6210319;23;20080;-83
2022/10/27 05:18:12;;;;;;;28.10;16.23;;;12.50;99.90;;;;;;6184066;23;20017;-83
2022/10/27 05:20:38;;;;;;;25.95;15.32;;;12.50;99.90;;;;;;6183829;23;20016;-83
2022/10/27 05:23:04;;;;;;;22.05;13.90;;;12.50;99.90;;;;;;6210246;23;20087;-83
2022/10/27 05:25:30;;;;;;;25.80;15.98;;;12.50;99.90;;;;;;6210334;23;20009;-84
2022/10/27 05:28:03;;;;;;;23.13;15.73;;;12.80;99.90;;;;;;6211205;23;20012;-83
2022/10/27 05:30:29;;;;;;;26.93;15.07;;;12.60;99.90;;;;;;6184226;23;20020;-85
2022/10/27 05:32:55;;;;;;;26.15;15.57;;;12.60;99.90;;;;;;6210500;23;20011;-84
2022/10/27 05:35:20;;;;;;;25.05;15.07;;;12.60;99.90;;;;;;6211148;23;20361;-84
2022/10/27 05:37:49;;;;;;;30.48;17.08;;;12.60;99.90;;;;;;6204261;23;20033;-83
2022/10/27 05:40:15;;;;;;;27.50;15.98;;;12.50;99.90;;;;;;6178459;23;20463;-84
2022/10/27 05:42:49;;;;;;;27.13;16.45;;;12.60;99.90;;;;;;6179225;23;20435;-84
2022/10/27 05:45:15;;;;;;;31.75;17.73;;;12.60;99.90;;;;;;6179370;23;20516;-84
2022/10/27 05:47:40;;;;;;;25.10;17.77;;;12.60;99.90;;;;;;6179491;23;20017;-84
2022/10/27 05:50:06;;;;;;;29.10;16.58;;;12.60;99.90;;;;;;6180536;23;20024;-83
2022/10/27 05:52:32;;;;;;;28.13;16.83;;;12.60;99.90;;;;;;6178650;23;20020;-84
2022/10/27 05:54:58;;;;;;;26.92;16.70;;;12.60;99.90;;;;;;6203689;23;20322;-84
2022/10/27 05:57:23;;;;;;;23.20;15.35;;;12.60;99.90;;;;;;6180511;23;20067;-83
2022/10/27 05:59:49;;;;;;;27.10;17.52;;;12.60;99.90;;;;;;6179153;23;20013;-83
2022/10/27 06:02:15;;;;;;;29.80;16.70;;;12.60;99.90;;;;;;6180360;23;20013;-86
2022/10/27 06:04:40;;;;;;;28.25;16.77;;;12.60;99.90;;;;;;6179551;23;20021;-86
2022/10/27 06:07:06;;;;;;;26.10;15.20;;;12.60;99.90;;;;;;6182116;23;20017;-86
2022/10/27 06:09:32;;;;;;;30.08;15.75;;;12.60;99.90;;;;;;6179581;23;20374;-84
2022/10/27 06:11:58;;;;;;;24.15;15.25;;;12.60;99.90;;;;;;6181857;23;20017;-86
2022/10/27 06:14:23;;;;;;;26.45;14.77;;;12.60;99.90;;;;;;6179968;23;20048;-86
2022/10/27 06:16:49;;;;;;;26.58;15.73;;;12.60;99.90;;;;;;6176966;23;20332;-86
2022/10/27 06:19:15;;;;;;;23.00;14.70;;;12.70;99.90;;;;;;6181148;23;20068;-86
2022/10/27 06:21:40;;;;;;;23.52;14.50;;;12.70;99.90;;;;;;6181129;23;20335;-85
2022/10/27 06:24:06;;;;;;;25.00;15.38;;;12.70;99.90;;;;;;6180171;23;20017;-87
2022/10/27 06:26:32;;;;;;;23.35;15.77;;;12.70;99.90;;;;;;6185277;23;20023;-85
2022/10/27 06:28:58;;;;;;;25.58;13.23;;;12.70;99.90;;;;;;6186339;23;20013;-85
2022/10/27 06:31:23;;;;;;;26.45;14.23;;;12.70;99.90;;;;;;6181439;23;20052;-85
2022/10/27 06:33:49;;;;;;;21.98;14.05;;;12.70;99.90;;;;;;6180249;23;20076;-85
2022/10/27 06:36:15;;;;;;;28.80;13.63;;;12.70;99.90;;;;;;6179511;23;20009;-85
2022/10/27 06:38:40;;;;;;;17.73;12.00;;;12.70;99.90;;;;;;6179474;23;20021;-85
2022/10/27 06:41:06;;;;;;;20.75;13.20;;;12.80;99.90;;;;;;6180893;23;20056;-86
2022/10/27 06:43:32;;;;;;;26.40;13.27;;;12.80;99.90;;;;;;6181232;23;20024;-83
2022/10/27 06:45:57;;;;;;;19.55;11.80;;;12.80;99.90;;;;;;6180264;23;20020;-84
2022/10/27 06:48:23;;;;;;;19.63;10.68;;;12.80;99.90;;;;;;6205278;23;20090;-84
2022/10/27 06:50:49;;;;;;;19.60;11.65;;;13.20;99.90;;;;;;6181216;23;20013;-84
2022/10/27 06:53:14;;;;;;;26.70;11.85;;;12.70;99.90;;;;;;6179985;23;20024;-83
2022/10/27 06:55:40;;;;;;;21.05;10.88;;;12.80;99.90;;;;;;6182252;23;20020;-84
2022/10/27 06:58:06;;;;;;;16.65;10.18;;;12.80;99.90;;;;;;6180730;23;20186;-84
2022/10/27 07:00:32;;;;;;;19.50;11.07;;;12.90;99.90;;;;;;6181732;23;20016;-82
2022/10/27 07:02:58;;;;;;;15.85;10.63;;;12.80;99.90;;;;;;6181603;23;20525;-82
2022/10/27 07:05:23;;;;;;;21.13;10.75;;;12.90;99.90;;;;;;6181623;23;20342;-83
2022/10/27 07:07:50;;;;;;;17.40;10.13;;;12.90;99.90;;;;;;6177633;23;20017;-84
2022/10/27 07:10:16;;;;;;;25.65;10.50;;;12.90;99.90;;;;;;6179557;23;20021;-84
2022/10/27 07:12:58;;;;;;;20.17;9.82;;;13.00;99.90;;;;;;6179421;23;20445;-83
2022/10/27 07:15:31;;;;;;;16.98;8.77;;;13.00;99.90;;;;;;6177618;23;20009;-84
2022/10/27 07:17:59;;;;;;;16.05;8.90;;;13.10;99.90;;;;;;6177985;23;20761;-84
2022/10/27 07:20:25;;;;;;;13.80;8.82;;;13.20;99.90;;;;;;6178675;23;20013;-84
2022/10/27 07:22:50;;;;;;;20.15;8.60;;;13.20;99.90;;;;;;6178387;23;20031;-84
2022/10/27 07:25:16;;;;;;;15.63;7.97;;;13.20;99.90;;;;;;6180905;23;20080;-84
2022/10/27 07:27:46;;;;;;;15.40;8.13;;;13.30;99.90;;;;;;6180577;23;20570;-84
2022/10/27 07:30:12;;;;;;;14.20;7.53;;;13.30;99.90;;;;;;6178670;23;20024;-84
2022/10/27 07:32:37;;;;;;;17.35;7.63;;;13.30;99.90;;;;;;6180653;23;20551;-84
2022/10/27 07:35:03;;;;;;;13.93;7.35;;;13.60;99.90;;;;;;6204569;23;20017;-84
2022/10/27 07:37:29;;;;;;;14.00;7.70;;;13.40;99.90;;;;;;6185074;23;20020;-84
2022/10/27 07:39:54;;;;;;;17.70;8.35;;;13.50;99.90;;;;;;6184110;23;20008;-84
2022/10/27 07:42:20;;;;;;;14.20;7.40;;;13.50;99.90;;;;;;6210604;23;20111;-84
2022/10/27 07:44:46;;;;;;;14.13;7.13;;;13.60;99.90;;;;;;6159020;23;20326;-84
2022/10/27 07:47:11;;;;;;;15.00;7.22;;;13.60;99.90;;;;;;6210750;23;20484;-84
2022/10/27 07:49:37;;;;;;;16.13;7.65;;;13.70;99.90;;;;;;6183825;23;20036;-84
2022/10/27 07:52:02;;;;;;;13.48;6.78;;;13.70;99.90;;;;;;6183398;23;20350;-84
2022/10/27 07:54:28;;;;;;;16.48;7.20;;;13.70;99.90;;;;;;6183730;23;20023;-84
2022/10/27 07:56:54;;;;;;;16.35;7.18;;;13.70;99.90;;;;;;6184035;23;20016;-83
2022/10/27 07:59:20;;;;;;;14.50;6.53;;;13.90;99.90;;;;;;6183943;23;20036;-84
2022/10/27 08:01:45;;;;;;;21.27;7.90;;;13.80;99.90;;;;;;6182144;23;20128;-84
2022/10/27 08:04:11;;;;;;;18.45;7.22;;;13.80;99.90;;;;;;6209157;23;20016;-84
2022/10/27 08:06:36;;;;;;;13.27;6.72;;;14.00;99.90;;;;;;6183620;23;20020;-84
2022/10/27 08:09:02;;;;;;;13.25;7.00;;;13.80;99.90;;;;;;6182597;23;20020;-84
2022/10/27 08:11:28;;;;;;;12.52;6.93;;;13.80;99.90;;;;;;6210786;23;20017;-84
2022/10/27 08:13:53;;;;;;;14.13;6.80;;;13.80;99.90;;;;;;6209988;23;20044;-84
2022/10/27 08:16:19;;;;;;;14.07;6.75;;;13.90;99.90;;;;;;6209956;23;20019;-83
2022/10/27 08:18:45;;;;;;;14.73;7.20;;;14.00;99.90;;;;;;6182449;23;20445;-85
2022/10/27 08:21:10;;;;;;;10.77;6.55;;;14.00;99.90;;;;;;6183531;23;20029;-84
2022/10/27 08:23:37;;;;;;;14.25;7.47;;;14.20;99.90;;;;;;6210788;23;20070;-84
2022/10/27 08:26:02;;;;;;;12.40;7.10;;;14.00;99.90;;;;;;6209364;23;20008;-84
2022/10/27 08:28:28;;;;;;;15.07;6.43;;;14.00;99.90;;;;;;6211181;23;20072;-84
2022/10/27 08:30:54;;;;;;;13.63;6.70;;;14.10;99.90;;;;;;6211781;23;20416;-83
2022/10/27 08:33:21;;;;;;;14.27;6.07;;;14.10;99.90;;;;;;6211906;23;20012;-84
2022/10/27 08:35:47;;;;;;;12.95;6.57;;;14.10;99.90;;;;;;6184356;23;20016;-85
2022/10/27 08:38:15;;;;;;;16.30;7.10;;;14.10;99.90;;;;;;6209422;23;20036;-85
2022/10/27 08:40:40;;;;;;;13.90;6.80;;;14.10;99.90;;;;;;6210296;23;20052;-85
2022/10/27 08:43:25;;;;;;;14.73;6.70;;;14.10;99.90;;;;;;6209604;23;20313;-84
2022/10/27 08:46:01;;;;;;;14.77;7.00;;;14.10;99.90;;;;;;6208540;23;20408;-84
2022/10/27 08:48:28;;;;;;;14.00;6.00;;;14.10;99.90;;;;;;6209969;23;20079;-84
2022/10/27 08:50:53;;;;;;;14.35;7.40;;;14.20;99.90;;;;;;6209932;23;20027;-84
2022/10/27 08:53:27;;;;;;;15.52;6.50;;;14.20;99.90;;;;;;6183549;23;20012;-84
2022/10/27 08:56:03;;;;;;;17.67;5.97;;;14.20;99.90;;;;;;6210167;23;20016;-84
2022/10/27 08:58:43;;;;;;;15.90;6.20;;;14.30;99.90;;;;;;6210653;23;20376;-84
2022/10/27 09:01:18;;;;;;;10.95;6.28;;;14.40;99.90;;;;;;6209942;23;20020;-84
2022/10/27 09:04:11;;;;;;;11.60;5.88;;;14.50;99.90;;;;;;6182677;23;20009;-84
2022/10/27 09:06:42;;;;;;;13.07;5.80;;;14.50;99.90;;;;;;6183477;23;20021;-84
2022/10/27 09:09:46;;;;;;;9.95;5.75;;;14.70;99.90;;;;;;6183156;23;20021;-84
2022/10/27 09:12:49;;;;;;;14.75;6.10;;;14.80;99.90;;;;;;6209852;23;20016;-84
2022/10/27 09:15:31;;;;;;;13.00;6.43;;;14.90;99.90;;;;;;6210218;23;20017;-84
2022/10/27 09:18:05;;;;;;;11.18;6.07;;;15.10;99.90;;;;;;6182849;23;20024;-84
2022/10/27 09:20:45;;;;;;;10.80;6.15;;;15.10;99.90;;;;;;6183491;23;20031;-84
2022/10/27 09:23:16;;;;;;;15.70;6.10;;;15.20;99.90;;;;;;6210013;23;20801;-83
2022/10/27 09:25:42;;;;;;;14.38;5.85;;;15.20;99.90;;;;;;6183145;23;20539;-84
2022/10/27 09:28:44;;;;;;;12.50;6.15;;;15.30;99.90;;;;;;6210128;23;20012;-84
2022/10/27 09:31:29;;;;;;;12.85;5.78;;;15.30;99.90;;;;;;6176032;23;20017;-84
2022/10/27 09:33:59;;;;;;;10.38;4.93;;;15.50;99.90;;;;;;6183518;23;20012;-85
2022/10/27 09:36:25;;;;;;;13.68;5.72;;;15.60;99.90;;;;;;6183025;23;20055;-84
2022/10/27 09:38:50;;;;;;;10.23;4.97;;;15.70;99.90;;;;;;6209882;23;20016;-84
2022/10/27 09:41:16;;;;;;;12.02;5.00;;;15.90;99.90;;;;;;6183093;23;20100;-84
2022/10/27 09:43:42;;;;;;;10.23;4.65;;;16.00;99.90;;;;;;6182808;23;20017;-85
2022/10/27 09:46:21;;;;;;;8.48;4.90;;;16.10;99.90;;;;;;6209798;23;20024;-85
2022/10/27 09:48:50;;;;;;;9.35;4.30;;;16.30;99.90;;;;;;6183208;23;20136;-84
2022/10/27 09:51:21;;;;;;;8.35;3.90;;;16.40;99.90;;;;;;6209199;23;20449;-84
2022/10/27 09:53:51;;;;;;;9.90;4.50;;;16.50;99.90;;;;;;6182413;23;20016;-84
2022/10/27 09:56:26;;;;;;;10.10;4.00;;;16.60;99.90;;;;;;6210181;23;20045;-84
2022/10/27 09:58:57;;;;;;;8.43;3.72;;;16.60;99.90;;;;;;6158275;23;20092;-84
2022/10/27 10:01:48;;;;;;;7.40;3.15;;;16.60;99.90;;;;;;6209177;23;20413;-84
2022/10/27 10:04:25;;;;;;;8.88;3.28;;;16.70;99.90;;;;;;6166277;23;20099;-84
2022/10/27 10:06:53;;;;;;;8.15;3.15;;;16.70;99.90;;;;;;6209468;23;20152;-84
2022/10/27 10:09:23;;;;;;;7.38;2.92;;;16.70;99.90;;;;;;6209286;23;20020;-84
2022/10/27 10:11:49;;;;;;;9.38;2.63;;;16.80;99.90;;;;;;6182745;23;20078;-84
2022/10/27 10:14:24;;;;;;;6.43;2.38;;;16.90;99.90;;;;;;6159898;23;20058;-85
2022/10/27 10:16:51;;;;;;;10.65;2.33;;;17.00;99.90;;;;;;6184388;23;20742;-85
2022/10/27 10:19:19;;;;;;;9.55;2.30;;;17.00;99.90;;;;;;6183942;23;20016;-83
2022/10/27 10:21:56;;;;;;;6.82;2.08;;;17.10;99.90;;;;;;6183312;23;20013;-84
2022/10/27 10:24:35;;;;;;;4.90;1.92;;;17.20;99.90;;;;;;6210773;23;20310;-82
2022/10/27 10:27:03;;;;;;;5.07;1.67;;;17.30;99.90;;;;;;6184333;23;20028;-83
2022/10/27 10:29:46;;;;;;;4.63;1.65;;;17.40;99.90;;;;;;6159018;23;20444;-86
2022/10/27 10:32:16;;;;;;;6.05;1.33;;;17.60;99.90;;;;;;6159180;23;20021;-86
2022/10/27 10:34:42;;;;;;;6.63;1.75;;;17.70;99.90;;;;;;6212218;23;20091;-85
2022/10/27 10:37:31;;;;;;;7.13;1.45;;;17.70;99.90;;;;;;6163779;23;20051;-85
2022/10/27 10:40:27;;;;;;;5.38;1.55;;;17.70;99.90;;;;;;6211606;23;20582;-86
2022/10/27 10:43:04;;;;;;;6.70;1.88;;;17.80;99.90;;;;;;6153366;23;20106;-85
2022/10/27 10:45:34;;;;;;;4.55;1.73;;;17.80;99.90;;;;;;6210940;23;20040;-87
2022/10/27 10:48:06;;;;;;;5.40;1.63;;;17.80;99.90;;;;;;6135451;23;20009;-87
2022/10/27 10:50:44;;;;;;;4.85;1.65;;;17.90;99.90;;;;;;6211916;23;20005;-87
2022/10/27 10:53:33;;;;;;;5.85;1.92;;;18.00;99.90;;;;;;6184109;23;20016;-87
2022/10/27 10:56:03;;;;;;;5.53;1.13;;;18.00;99.90;;;;;;6211740;23;20500;-85
2022/10/27 10:58:31;;;;;;;8.23;1.92;;;18.10;99.90;;;;;;6212472;23;20008;-86
2022/10/27 11:01:03;;;;;;;5.55;1.30;;;18.10;99.90;;;;;;6186413;23;20020;-85
2022/10/27 11:03:39;;;;;;;5.45;1.15;;;18.20;99.90;;;;;;6213425;23;20017;-84
2022/10/27 11:06:14;;;;;;;4.53;1.10;;;18.20;99.90;;;;;;6211414;23;20013;-85
2022/10/27 11:08:43;;;;;;;8.77;1.50;;;18.40;99.90;;;;;;6212064;23;20016;-85
2022/10/27 11:11:15;;;;;;;5.55;1.40;;;18.50;99.90;;;;;;6213090;23;20362;-85
2022/10/27 11:13:58;;;;;;;5.88;1.20;;;18.60;99.90;;;;;;6212393;23;20555;-85
2022/10/27 11:16:24;;;;;;;5.90;1.23;;;18.70;99.90;;;;;;6213003;23;20020;-85
2022/10/27 11:19:05;;;;;;;5.32;1.67;;;18.80;99.90;;;;;;6213286;23;20009;-85
2022/10/27 11:21:37;;;;;;;5.20;1.60;;;18.80;99.90;;;;;;6161690;23;20103;-85
2022/10/27 11:24:15;;;;;;;9.18;1.40;;;18.80;99.90;;;;;;6185924;23;20016;-85
2022/10/27 11:27:06;;;;;;;5.28;1.40;;;19.00;99.90;;;;;;6213507;23;20017;-86
2022/10/27 11:30:01;;;;;;;5.88;1.88;;;19.10;99.90;;;;;;6212943;23;20362;-85
2022/10/27 11:32:51;;;;;;;5.90;1.33;;;19.30;99.90;;;;;;6210299;23;20016;-84
2022/10/27 11:35:51;;;;;;;3.00;1.13;;;19.40;99.90;;;;;;6186765;23;20020;-85
2022/10/27 11:38:41;;;;;;;3.80;1.00;;;19.50;99.90;;;;;;6204436;23;20027;-85
2022/10/27 11:41:31;;;;;;;5.03;1.20;;;19.40;99.90;;;;;;6212654;23;20063;-85
2022/10/27 11:44:03;;;;;;;4.63;1.27;;;19.30;99.90;;;;;;6212639;23;20020;-86
2022/10/27 11:46:43;;;;;;;6.38;1.40;;;19.30;99.90;;;;;;6186712;23;20009;-85
2022/10/27 11:49:29;;;;;;;5.50;1.30;;;19.10;99.90;;;;;;6212651;23;20441;-83
2022/10/27 11:52:04;;;;;;;4.80;1.30;;;19.10;99.90;;;;;;6210447;23;20035;-85
2022/10/27 11:54:30;;;;;;;4.90;1.17;;;19.00;99.90;;;;;;6212513;23;20048;-86
2022/10/27 11:57:36;;;;;;;4.72;1.10;;;18.90;99.90;;;;;;6159517;23;20017;-85
2022/10/27 12:00:23;;;;;;;5.93;1.02;;;19.00;99.90;;;;;;6036546;23;20567;-83
2022/10/27 12:03:18;;;;;;;5.82;1.20;;;19.10;99.90;;;;;;6060529;23;20519;-83
2022/10/27 12:05:46;;;;;;;3.97;1.08;;;19.10;99.90;;;;;;6062126;23;20111;-84
2022/10/27 12:08:20;;;;;;;7.20;1.20;;;19.20;99.90;;;;;;6062123;23;20034;-83
2022/10/27 12:11:01;;;;;;;3.22;0.95;;;19.20;99.90;;;;;;6036257;23;20019;-85
2022/10/27 12:13:51;;;;;;;4.25;1.10;;;19.30;99.90;;;;;;6061730;23;20058;-88
2022/10/27 12:16:37;;;;;;;6.55;1.35;;;19.40;99.90;;;;;;6037571;23;20101;-84
2022/10/27 12:19:12;;;;;;;7.50;1.30;;;19.60;99.90;;;;;;6013829;23;20027;-83
2022/10/27 12:22:01;;;;;;;3.30;1.10;;;19.70;99.90;;;;;;6061343;23;20019;-83
2022/10/27 12:24:26;;;;;;;6.93;1.35;;;19.80;99.90;;;;;;6037813;23;20034;-83
2022/10/27 12:26:58;;;;;;;6.95;1.40;;;19.90;99.90;;;;;;6037032;23;20426;-83
2022/10/27 12:29:31;;;;;;;4.95;1.23;;;20.00;99.90;;;;;;6037066;23;20535;-82
2022/10/27 12:32:01;;;;;;;3.42;1.35;;;20.00;99.90;;;;;;6062080;23;20019;-83
2022/10/27 12:34:34;;;;;;;6.03;1.27;;;19.90;99.90;;;;;;6037838;23;20101;-84
2022/10/27 12:37:11;;;;;;;8.05;1.40;;;19.90;99.90;;;;;;6153629;23;20016;-84
2022/10/27 12:39:45;;;;;;;7.20;1.80;;;19.80;99.90;;;;;;6211047;23;20013;-84
2022/10/27 12:42:35;;;;;;;6.20;1.38;;;19.70;99.90;;;;;;6185585;23;20029;-84
2022/10/27 12:45:29;;;;;;;3.05;0.93;;;19.60;99.90;;;;;;6185174;23;20392;-84
2022/10/27 12:48:02;;;;;;;5.00;1.20;;;19.40;99.90;;;;;;6184255;23;20012;-85
2022/10/27 12:50:34;;;;;;;4.63;1.20;;;19.40;99.90;;;;;;6212096;23;20016;-83
2022/10/27 12:53:10;;;;;;;4.28;1.20;;;19.40;99.90;;;;;;6211568;23;20009;-86
2022/10/27 12:55:54;;;;;;;5.65;1.25;;;19.30;99.90;;;;;;6210756;23;20008;-85